Time;durP1;ratioP1;P1;durP2;ratioP2;P2;SDS_P1;SDS_P2;PMS_P1;PMS_P2;Temp;Humidity;BMP_temperature;BMP_pressure;BME280_temperature;BME280_humidity;BME280_pressure;Samples;Min_cycle;Max_cycle;Signal;HPM_P1;HPM_P2
2021/12/23 00:00:55;;;;;;;18.00;12.33;;;-3.70;76.80;;;-5.67;86.88;98385.88;4961376;28;20453;-66
2021/12/23 00:03:22;;;;;;;18.63;12.53;;;-3.80;76.90;;;-5.62;86.84;98377.66;4965525;28;20536;-69
2021/12/23 00:05:53;;;;;;;19.63;11.80;;;-3.80;77.30;;;-5.78;86.31;98333.09;4961225;28;20491;-73
2021/12/23 00:08:20;;;;;;;15.77;12.03;;;-3.70;77.00;;;-5.67;86.49;98358.72;4966769;28;20453;-68
2021/12/23 00:10:47;;;;;;;18.23;12.60;;;-3.70;76.70;;;-5.54;86.57;98383.25;4959972;28;20541;-71
2021/12/23 00:13:16;;;;;;;18.43;13.33;;;-3.70;77.10;;;-5.50;86.33;98381.25;4963391;28;20476;-66
2021/12/23 00:16:02;;;;;;;14.00;10.57;;;-3.70;77.20;;;-5.51;86.78;98375.16;4966988;28;20470;-70
2021/12/23 00:18:43;;;;;;;17.67;11.40;;;-3.70;77.30;;;-5.46;86.31;98373.03;4965344;28;20465;-72
2021/12/23 00:23:59;;;;;;;18.00;11.87;;;-3.60;76.50;;;-5.33;85.62;98373.03;4960106;28;20462;-72
2021/12/23 00:26:27;;;;;;;14.50;11.40;;;-3.50;75.90;;;-5.35;85.38;98358.31;4961229;28;20465;-71
2021/12/23 00:28:57;;;;;;;16.10;12.30;;;-3.50;75.70;;;-5.38;85.62;98347.94;4962436;28;20464;-70
2021/12/23 00:31:24;;;;;;;18.57;12.87;;;-3.50;75.50;;;-5.33;85.56;98361.66;4967316;28;20472;-70
2021/12/23 00:33:51;;;;;;;15.03;10.80;;;-3.50;75.70;;;-5.54;85.86;98327.94;4965066;28;21037;-68
2021/12/23 00:36:18;;;;;;;17.93;12.03;;;-3.50;76.20;;;-5.29;85.48;98360.50;4964020;28;20486;-76
2021/12/23 00:38:49;;;;;;;15.83;11.27;;;-3.50;75.60;;;-5.32;85.60;98353.63;4962641;28;20545;-70
2021/12/23 00:41:17;;;;;;;19.37;13.63;;;-3.40;75.50;;;-5.32;85.67;98363.34;4963970;28;20548;-72
2021/12/23 00:43:44;;;;;;;18.93;12.60;;;-3.40;75.60;;;-5.36;85.75;98354.81;4964831;28;20536;-72
2021/12/23 00:46:12;;;;;;;16.33;11.23;;;-3.50;75.70;;;-5.37;86.16;98354.94;4963029;28;20557;-70
2021/12/23 00:48:39;;;;;;;15.43;11.37;;;-3.50;76.00;;;-5.30;85.77;98357.03;4962685;28;20466;-70
2021/12/23 00:51:07;;;;;;;16.43;11.13;;;-3.50;75.80;;;-5.43;86.08;98341.22;4964969;28;20956;-67
2021/12/23 00:53:38;;;;;;;16.93;11.70;;;-3.50;75.90;;;-5.66;86.49;98324.38;4967260;28;21110;-67
2021/12/23 00:56:06;;;;;;;16.43;12.57;;;-3.60;76.10;;;-5.34;85.98;98349.44;4956466;28;20573;-74
2021/12/23 00:58:33;;;;;;;15.77;12.23;;;-3.50;76.10;;;-5.31;85.93;98357.13;4967279;28;20461;-67
2021/12/23 01:01:01;;;;;;;17.30;12.60;;;-3.50;75.70;;;-5.24;85.46;98360.19;4971677;28;20546;-69
2021/12/23 01:03:30;;;;;;;15.77;11.90;;;-3.40;75.50;;;-5.44;85.19;98313.19;4964858;28;20952;-69
2021/12/23 01:05:58;;;;;;;15.47;11.90;;;-3.30;75.10;;;-5.24;85.09;98339.09;4960923;28;20520;-71
2021/12/23 01:08:25;;;;;;;16.47;12.60;;;-3.30;75.30;;;-5.91;85.01;98219.94;4958273;28;20599;-70
2021/12/23 01:10:56;;;;;;;17.93;12.50;;;-3.30;75.00;;;-5.21;85.38;98339.75;4958452;28;20976;-68
2021/12/23 01:13:26;;;;;;;17.77;12.00;;;-3.30;75.20;;;-5.17;85.32;98343.84;4963834;28;20474;-69
2021/12/23 01:16:06;;;;;;;15.63;12.20;;;-3.30;75.20;;;-5.13;85.03;98344.47;4974513;28;20988;-66
2021/12/23 01:18:43;;;;;;;19.93;12.93;;;-3.30;75.10;;;-5.49;84.83;98296.88;4957522;28;20477;-78
2021/12/23 01:21:17;;;;;;;17.47;13.00;;;-3.30;74.80;;;-5.10;84.97;98354.78;4959979;28;20476;-72
2021/12/23 01:23:49;;;;;;;20.00;12.90;;;-3.30;74.80;;;-5.49;84.63;98275.81;4960914;28;20484;-72
2021/12/23 01:26:18;;;;;;;13.93;11.53;;;-3.20;74.50;;;-5.14;85.28;98346.25;4982474;28;20543;-72
2021/12/23 01:28:48;;;;;;;18.53;13.47;;;-3.30;74.90;;;-5.32;85.75;98337.84;4962210;28;20502;-76
2021/12/23 01:31:16;;;;;;;17.30;12.00;;;-3.30;75.10;;;-5.12;85.21;98354.88;4958099;28;20470;-72
2021/12/23 01:33:45;;;;;;;17.40;12.10;;;-3.30;75.20;;;-5.28;85.91;98334.06;4962024;28;21025;-74
2021/12/23 01:36:12;;;;;;;14.40;12.10;;;-3.30;75.50;;;-5.17;85.78;98340.34;4961798;28;20561;-69
2021/12/23 01:38:39;;;;;;;17.57;12.27;;;-3.30;75.30;;;-5.09;85.36;98348.56;4959297;28;20461;-70
2021/12/23 01:41:06;;;;;;;18.80;14.40;;;-3.20;75.40;;;-5.07;85.13;98344.03;4964237;28;20950;-73
2021/12/23 01:43:33;;;;;;;18.00;12.50;;;-3.20;75.00;;;-5.06;85.19;98334.34;4965211;28;20475;-71
2021/12/23 01:46:00;;;;;;;18.37;12.03;;;-3.20;75.10;;;-5.04;85.25;98330.63;4961393;28;20930;-72
2021/12/23 01:48:28;;;;;;;18.43;13.60;;;-3.30;75.40;;;-5.12;85.53;98333.81;4973342;28;20985;-68
2021/12/23 01:50:57;;;;;;;16.53;13.13;;;-3.30;75.20;;;-5.00;84.98;98332.13;4963273;28;20468;-71
2021/12/23 01:53:24;;;;;;;15.43;11.80;;;-3.20;75.40;;;-5.07;85.02;98330.03;4964559;28;20601;-70
2021/12/23 01:55:51;;;;;;;15.17;12.27;;;-3.20;75.30;;;-5.06;85.39;98329.06;4962018;28;20458;-71
2021/12/23 01:58:22;;;;;;;17.53;13.03;;;-3.30;75.50;;;-5.07;85.49;98330.03;4966559;28;20497;-68
2021/12/23 02:00:52;;;;;;;17.60;11.73;;;-3.30;75.40;;;-5.03;84.93;98319.13;4965044;28;20548;-70
2021/12/23 02:03:20;;;;;;;18.93;14.20;;;-3.30;75.40;;;-5.20;84.91;98288.72;4961621;28;20485;-70
2021/12/23 02:05:47;;;;;;;18.13;13.47;;;-3.30;75.30;;;-5.14;85.54;98321.72;4961707;28;20540;-70
2021/12/23 02:08:19;;;;;;;18.50;13.20;;;-3.30;75.70;;;-5.48;85.83;98285.41;4976303;28;20560;-69
2021/12/23 02:10:46;;;;;;;18.93;13.27;;;-3.30;76.00;;;-5.12;85.73;98302.19;4967623;28;20571;-71
2021/12/23 02:13:13;;;;;;;16.17;12.23;;;-3.30;75.90;;;-5.30;85.87;98283.28;4968669;28;20646;-68
2021/12/23 02:15:40;;;;;;;20.03;13.67;;;-3.30;76.00;;;-5.09;86.01;98310.81;4963119;28;20584;-72
2021/12/23 02:18:07;;;;;;;17.30;13.07;;;-3.30;76.10;;;-5.15;86.08;98293.69;4964718;28;20577;-71
2021/12/23 02:20:37;;;;;;;18.63;12.83;;;-3.30;76.00;;;-5.13;86.18;98274.16;4964397;28;20552;-73
2021/12/23 02:23:06;;;;;;;16.87;13.30;;;-3.30;76.10;;;-5.19;86.19;98271.13;4970537;28;20588;-69
2021/12/23 02:25:33;;;;;;;19.30;13.50;;;-3.20;75.90;;;-5.09;85.85;98280.06;4978418;28;20449;-68
2021/12/23 02:28:04;;;;;;;15.97;12.10;;;-3.20;75.90;;;-5.04;85.90;98277.09;4966954;28;21107;-70
2021/12/23 02:30:32;;;;;;;17.27;12.50;;;-3.20;76.20;;;-5.17;86.07;98266.56;4963262;28;20469;-71
2021/12/23 02:32:59;;;;;;;19.20;13.70;;;-3.30;75.90;;;-5.06;85.93;98273.72;4963306;28;20509;-70
2021/12/23 02:35:26;;;;;;;18.87;14.07;;;-3.30;76.00;;;-5.21;86.33;98254.56;4968647;28;20556;-71
2021/12/23 02:37:55;;;;;;;21.30;14.70;;;-3.30;76.30;;;-5.06;86.28;98271.09;4977332;28;20490;-69
2021/12/23 02:40:31;;;;;;;18.40;13.37;;;-3.20;76.50;;;-4.98;85.89;98250.28;4965306;28;20469;-68
2021/12/23 02:43:08;;;;;;;18.67;13.70;;;-3.20;76.60;;;-5.48;85.67;98180.06;4968282;28;20964;-68
2021/12/23 02:45:35;;;;;;;17.70;12.50;;;-3.20;76.10;;;-4.91;85.83;98246.25;4962671;28;20544;-71
2021/12/23 02:48:02;;;;;;;18.70;13.63;;;-3.10;76.20;;;-5.02;85.39;98207.50;4964395;28;20445;-68
2021/12/23 02:50:30;;;;;;;21.70;13.43;;;-3.10;75.80;;;-4.90;85.21;98232.13;4967091;28;20556;-70
2021/12/23 02:52:58;;;;;;;21.13;15.77;;;-3.00;75.60;;;-4.87;85.71;98228.41;4962574;28;20516;-73
2021/12/23 02:55:26;;;;;;;22.07;14.97;;;-3.10;76.00;;;-4.85;85.43;98219.44;4965721;28;20465;-72
2021/12/23 02:57:53;;;;;;;20.27;14.33;;;-3.10;75.80;;;-4.87;85.23;98224.00;4962724;28;21095;-69
2021/12/23 03:00:21;;;;;;;19.73;13.90;;;-3.10;75.80;;;-4.71;85.04;98230.78;4966126;28;20551;-71
2021/12/23 03:02:48;;;;;;;21.30;14.20;;;-3.00;75.80;;;-4.87;85.28;98192.34;4969226;28;20489;-73
2021/12/23 03:05:15;;;;;;;21.93;14.10;;;-3.00;75.90;;;-4.86;85.51;98194.03;4962329;28;20468;-70
2021/12/23 03:07:42;;;;;;;21.73;15.10;;;-3.00;75.70;;;-4.86;85.55;98201.94;4961514;28;20557;-70
2021/12/23 03:10:11;;;;;;;21.10;14.83;;;-3.00;75.90;;;-4.90;85.96;98192.59;4964034;28;20938;-70
2021/12/23 03:12:38;;;;;;;20.97;14.93;;;-3.00;76.00;;;-4.88;86.38;98188.03;4969145;28;20469;-71
2021/12/23 03:15:07;;;;;;;23.80;16.80;;;-3.00;76.50;;;-4.93;85.83;98160.34;4965518;28;20980;-68
2021/12/23 03:17:34;;;;;;;20.63;15.80;;;-3.00;76.20;;;-4.96;85.96;98158.75;4964876;28;21025;-71
2021/12/23 03:20:02;;;;;;;20.77;15.40;;;-3.00;76.30;;;-4.85;86.10;98166.72;4968395;28;20493;-69
2021/12/23 03:22:29;;;;;;;22.80;16.30;;;-3.00;76.40;;;-4.85;86.48;98174.63;4972021;28;20466;-72
2021/12/23 03:24:56;;;;;;;23.03;16.57;;;-3.00;76.60;;;-5.13;86.89;98158.22;4970376;28;20465;-71
2021/12/23 03:27:24;;;;;;;22.47;14.70;;;-3.10;76.60;;;-4.88;86.80;98188.03;4973453;28;21048;-72
2021/12/23 03:29:54;;;;;;;20.50;14.83;;;-3.10;77.30;;;-4.89;86.41;98159.16;4968846;28;20536;-69
2021/12/23 03:32:21;;;;;;;23.43;14.60;;;-3.00;77.00;;;-4.73;86.04;98175.50;4963645;28;20490;-70
2021/12/23 03:34:48;;;;;;;21.67;15.37;;;-3.00;77.00;;;-4.76;86.01;98169.63;4967578;28;20449;-72
2021/12/23 03:37:15;;;;;;;24.63;17.13;;;-3.00;76.80;;;-4.82;86.62;98170.94;4974485;28;20492;-71
2021/12/23 03:39:42;;;;;;;25.73;17.40;;;-3.00;76.80;;;-5.14;86.34;98119.63;4967345;28;20496;-67
2021/12/23 03:42:10;;;;;;;24.60;17.47;;;-3.00;76.90;;;-4.89;85.92;98148.59;4963482;28;20545;-70
2021/12/23 03:44:38;;;;;;;22.37;16.70;;;-2.90;76.60;;;-5.08;86.60;98133.31;4969135;28;20976;-70
2021/12/23 03:47:06;;;;;;;28.83;17.67;;;-3.00;76.80;;;-4.94;87.05;98177.94;4969088;28;20540;-73
2021/12/23 03:49:33;;;;;;;22.57;17.40;;;-3.00;77.00;;;-5.35;86.75;98087.00;4965902;28;20906;-72
2021/12/23 03:52:01;;;;;;;25.40;17.30;;;-3.00;77.60;;;-4.88;86.72;98164.31;4968890;28;20894;-70
2021/12/23 03:54:27;;;;;;;23.47;17.47;;;-3.00;77.40;;;-4.81;87.08;98162.06;4961457;28;20584;-72
2021/12/23 03:56:56;;;;;;;24.47;18.20;;;-3.00;77.80;;;-4.76;86.84;98161.72;4964891;28;20483;-74
2021/12/23 03:59:23;;;;;;;27.50;18.13;;;-3.00;77.50;;;-4.79;86.95;98156.66;4966819;28;20955;-74
2021/12/23 04:01:52;;;;;;;23.90;17.60;;;-3.00;77.50;;;-4.82;86.68;98144.56;4962344;28;20465;-71
2021/12/23 04:04:19;;;;;;;25.23;18.00;;;-3.00;77.60;;;-4.91;87.41;98146.09;4963593;28;20477;-69
2021/12/23 04:06:46;;;;;;;26.38;18.95;;;-3.00;77.60;;;-4.80;87.02;98141.81;4965287;28;20485;-73
2021/12/23 04:09:13;;;;;;;22.57;16.97;;;-3.00;77.70;;;-4.90;86.96;98129.31;4965553;28;20544;-74
2021/12/23 04:11:40;;;;;;;24.70;17.40;;;-3.00;77.60;;;-5.13;87.53;98105.50;4968521;28;20549;-71
2021/12/23 04:14:07;;;;;;;23.70;17.40;;;-3.10;77.90;;;-4.95;87.84;98123.53;4971578;28;20474;-73
2021/12/23 04:16:34;;;;;;;27.43;18.53;;;-3.10;78.40;;;-4.86;87.45;98108.81;4962456;28;20540;-76
2021/12/23 04:19:07;;;;;;;24.70;19.07;;;-3.10;78.50;;;-5.14;87.83;98098.56;4962442;28;20470;-70
2021/12/23 04:21:34;;;;;;;27.13;18.03;;;-3.10;78.40;;;-5.09;87.85;98102.63;4969968;28;20493;-72
2021/12/23 04:24:01;;;;;;;23.03;16.53;;;-3.10;78.70;;;-5.02;87.92;98111.78;4967539;28;21142;-72
2021/12/23 04:26:28;;;;;;;26.87;18.30;;;-3.10;78.80;;;-5.07;88.28;98127.13;4980355;28;20475;-69
2021/12/23 04:28:55;;;;;;;27.50;19.47;;;-3.20;79.00;;;-5.14;88.29;98111.72;4983667;28;21033;-76
2021/12/23 04:31:25;;;;;;;24.90;17.70;;;-3.20;79.80;;;-5.13;88.27;98105.50;4967015;28;20497;-70
2021/12/23 04:33:54;;;;;;;28.60;17.70;;;-3.20;79.50;;;-5.05;88.24;98130.47;4969025;28;20491;-69
2021/12/23 04:36:25;;;;;;;24.80;17.63;;;-3.20;79.70;;;-5.11;88.34;98118.59;4966745;28;20479;-74
2021/12/23 04:38:52;;;;;;;26.73;19.40;;;-3.20;79.40;;;-5.07;88.08;98125.31;4960367;28;20489;-70
2021/12/23 04:41:19;;;;;;;25.27;19.20;;;-3.20;79.60;;;-5.01;87.87;98129.28;4967336;28;20494;-72
2021/12/23 04:43:46;;;;;;;27.90;19.00;;;-3.20;79.40;;;-5.26;88.32;98110.00;4972794;28;20492;-72
2021/12/23 04:46:13;;;;;;;27.57;19.23;;;-3.30;79.30;;;-5.27;88.71;98118.84;4967192;28;20466;-71
2021/12/23 04:48:40;;;;;;;25.97;18.93;;;-3.30;79.90;;;-5.19;88.49;98132.31;4967436;28;20502;-72
2021/12/23 04:51:07;;;;;;;30.30;18.77;;;-3.30;79.50;;;-5.24;88.67;98139.69;4963060;28;20490;-69
2021/12/23 04:53:36;;;;;;;27.47;19.37;;;-3.40;79.80;;;-5.26;88.82;98138.97;4965260;28;20458;-70
2021/12/23 04:56:03;;;;;;;30.23;19.90;;;-3.40;80.30;;;-5.34;89.44;98136.09;4971428;28;20505;-69
2021/12/23 04:58:30;;;;;;;32.80;19.47;;;-3.50;80.40;;;-5.32;89.19;98132.34;4966305;28;21084;-71
2021/12/23 05:00:57;;;;;;;28.10;19.80;;;-3.40;80.70;;;-5.36;89.19;98127.44;4963712;28;21012;-69
2021/12/23 05:03:27;;;;;;;27.93;19.33;;;-3.40;80.80;;;-5.23;89.21;98130.03;4965917;28;20455;-70
2021/12/23 05:05:54;;;;;;;29.40;21.60;;;-3.40;80.40;;;-5.42;88.96;98111.13;4965476;28;20606;-75
2021/12/23 05:08:21;;;;;;;27.97;20.70;;;-3.50;80.60;;;-5.43;89.18;98093.66;4964215;28;20994;-71
2021/12/23 05:10:49;;;;;;;32.93;22.00;;;-3.50;80.80;;;-5.67;89.52;98085.75;4968323;28;21116;-71
2021/12/23 05:13:16;;;;;;;33.50;22.97;;;-3.60;80.90;;;-5.57;90.32;98104.34;4963367;28;20465;-72
2021/12/23 05:15:44;;;;;;;29.50;20.67;;;-3.60;82.10;;;-5.74;90.95;98082.72;4959087;28;21037;-69
2021/12/23 05:18:11;;;;;;;39.37;20.60;;;-3.70;83.30;;;-5.70;91.20;98091.22;4966162;28;20481;-73
2021/12/23 05:20:38;;;;;;;35.50;22.20;;;-3.80;83.90;;;-5.86;91.50;98070.41;4965593;28;20560;-70
2021/12/23 05:23:05;;;;;;;33.07;21.87;;;-3.80;84.50;;;-5.74;91.78;98103.75;4966181;28;20473;-72
2021/12/23 05:25:32;;;;;;;35.37;24.30;;;-3.80;84.90;;;-5.81;91.81;98102.53;4973738;28;20549;-68
2021/12/23 05:28:01;;;;;;;36.20;23.10;;;-3.80;85.40;;;-5.71;91.81;98095.63;4963948;28;20462;-70
2021/12/23 05:30:28;;;;;;;29.83;21.97;;;-3.80;85.00;;;-5.78;92.09;98109.34;4962708;28;20501;-70
2021/12/23 05:32:56;;;;;;;35.30;22.50;;;-3.80;85.00;;;-5.63;91.49;98091.63;4964638;28;20556;-70
2021/12/23 05:35:23;;;;;;;32.53;22.30;;;-3.70;85.30;;;-5.48;91.04;98103.69;4963061;28;20793;-68
2021/12/23 05:37:52;;;;;;;30.93;23.30;;;-3.70;84.50;;;-5.62;91.86;98111.75;4962173;28;20481;-72
2021/12/23 05:40:23;;;;;;;32.53;22.17;;;-3.70;84.60;;;-5.58;91.10;98092.97;4975232;28;20462;-71
2021/12/23 05:42:50;;;;;;;35.67;22.70;;;-3.70;84.30;;;-5.53;91.93;98121.63;4976301;28;20905;-73
2021/12/23 05:45:19;;;;;;;35.50;20.37;;;-3.60;84.90;;;-5.43;91.46;98088.38;4964426;28;20735;-71
2021/12/23 05:47:48;;;;;;;36.20;22.63;;;-3.60;85.40;;;-5.34;91.17;98078.13;4963729;28;20973;-71
2021/12/23 05:50:17;;;;;;;33.40;22.80;;;-3.50;84.40;;;-5.42;91.04;98089.22;4979404;28;21433;-69
2021/12/23 05:52:44;;;;;;;32.67;20.80;;;-3.50;83.70;;;-5.37;91.35;98087.09;4963920;28;20498;-72
2021/12/23 05:55:14;;;;;;;39.10;23.40;;;-3.50;84.70;;;-5.37;91.31;98060.75;4957836;28;21061;-71
2021/12/23 05:57:42;;;;;;;28.17;18.07;;;-3.50;84.60;;;-5.22;91.91;98069.31;4964843;28;21096;-70
2021/12/23 06:00:16;;;;;;;33.73;23.17;;;-3.40;86.50;;;-5.20;90.97;98067.41;4961084;28;20465;-73
2021/12/23 06:02:45;;;;;;;33.47;22.23;;;-3.30;84.00;;;-5.26;90.64;98067.84;4978544;28;20460;-71
2021/12/23 06:05:13;;;;;;;31.50;22.73;;;-3.40;82.90;;;-5.33;90.86;98061.38;4963705;28;20462;-75
2021/12/23 06:07:40;;;;;;;37.53;22.90;;;-3.40;82.90;;;-5.31;90.44;98064.72;4969099;28;20470;-77
2021/12/23 06:10:09;;;;;;;32.77;22.07;;;-3.40;82.20;;;-5.42;90.22;98068.16;4970914;28;20536;-77
2021/12/23 06:12:36;;;;;;;35.33;23.80;;;-3.40;81.70;;;-5.47;90.89;98081.66;4960178;28;20495;-76
2021/12/23 06:15:04;;;;;;;38.30;24.60;;;-3.60;83.40;;;-5.46;91.11;98082.47;4962486;28;20544;-75
2021/12/23 06:17:31;;;;;;;33.07;21.87;;;-3.60;84.00;;;-5.93;91.42;98021.81;4962010;28;20513;-75
2021/12/23 06:20:00;;;;;;;38.57;24.00;;;-3.60;83.70;;;-5.54;91.43;98090.94;4964418;28;20461;-77
2021/12/23 06:22:27;;;;;;;37.40;23.10;;;-3.60;84.10;;;-5.63;91.89;98070.56;4981032;28;20494;-76
2021/12/23 06:24:54;;;;;;;37.90;23.40;;;-3.60;84.60;;;-5.59;91.90;98069.38;4960074;28;20486;-77
2021/12/23 06:27:22;;;;;;;35.30;22.10;;;-3.60;85.10;;;-6.60;92.01;97895.91;4962077;28;20550;-77
2021/12/23 06:29:49;;;;;;;33.97;21.13;;;-3.60;86.10;;;-5.47;91.78;98059.75;4959998;28;20464;-76
2021/12/23 06:32:16;;;;;;;36.77;23.10;;;-3.60;85.80;;;-5.47;91.86;98080.81;4963252;28;20559;-71
2021/12/23 06:34:43;;;;;;;41.97;23.93;;;-3.60;85.50;;;-5.47;92.10;98071.13;4959413;28;20465;-69
2021/12/23 06:37:12;;;;;;;39.43;23.10;;;-3.50;85.90;;;-5.49;92.17;98086.19;4957755;28;20552;-68
2021/12/23 06:39:39;;;;;;;36.20;22.80;;;-3.60;85.40;;;-5.38;92.10;98068.75;4977936;28;20549;-68
2021/12/23 06:42:08;;;;;;;42.40;23.90;;;-3.50;86.70;;;-5.36;92.10;98067.69;4961279;28;20461;-68
2021/12/23 06:44:35;;;;;;;43.10;25.13;;;-3.50;86.10;;;-5.44;92.63;98060.34;4961216;28;20462;-69
2021/12/23 06:47:03;;;;;;;40.10;24.60;;;-3.50;85.70;;;-5.40;92.42;98051.28;4959332;28;20556;-68
2021/12/23 06:49:31;;;;;;;43.97;22.00;;;-3.50;86.10;;;-5.26;91.86;98047.63;4961233;28;20466;-69
2021/12/23 06:52:00;;;;;;;36.37;21.60;;;-3.40;85.60;;;-5.29;91.89;98034.69;4979339;28;20992;-69
2021/12/23 06:54:29;;;;;;;43.30;25.53;;;-3.50;85.40;;;-5.33;91.43;98040.28;4955600;28;20492;-68
2021/12/23 06:56:56;;;;;;;36.07;22.23;;;-3.40;84.40;;;-5.38;91.57;98031.88;4957609;28;20506;-69
2021/12/23 06:59:23;;;;;;;35.93;21.27;;;-3.50;84.50;;;-5.35;91.96;98026.41;4959629;28;20478;-69
2021/12/23 07:01:50;;;;;;;41.30;22.67;;;-3.50;84.80;;;-5.34;91.30;98018.38;4951894;28;20466;-71
2021/12/23 07:04:17;;;;;;;41.70;22.80;;;-3.40;84.00;;;-5.24;90.68;98023.78;4970647;28;20571;-71
2021/12/23 07:06:58;;;;;;;35.70;20.80;;;-3.40;83.50;;;-5.23;91.35;98009.69;4956391;28;20489;-71
2021/12/23 07:09:25;;;;;;;31.77;21.67;;;-3.30;85.50;;;-5.11;90.51;98034.25;4960803;28;20548;-69
2021/12/23 07:11:53;;;;;;;37.43;23.03;;;-3.30;83.10;;;-4.99;89.95;98033.34;4958715;28;20558;-70
2021/12/23 07:14:20;;;;;;;32.47;18.43;;;-3.20;82.70;;;-5.12;89.90;98014.97;4964749;28;20476;-71
2021/12/23 07:16:47;;;;;;;31.10;21.50;;;-3.20;81.60;;;-5.21;90.11;98023.56;4966400;28;20544;-70
2021/12/23 07:19:14;;;;;;;39.03;22.97;;;-3.30;82.10;;;-5.18;90.04;98028.63;4971266;28;20536;-72
2021/12/23 07:21:41;;;;;;;35.13;22.73;;;-3.30;81.30;;;-5.35;89.79;98016.69;4968074;28;20831;-70
2021/12/23 07:24:08;;;;;;;39.08;24.95;;;-3.30;81.20;;;-5.30;90.36;98029.53;4966074;28;20489;-73
2021/12/23 07:26:37;;;;;;;37.67;23.83;;;-3.30;82.10;;;-5.32;90.17;98037.53;4964893;28;20316;-69
2021/12/23 07:29:06;;;;;;;33.77;22.87;;;-3.40;81.70;;;-5.29;89.79;98050.50;4960286;28;20458;-70
2021/12/23 07:31:33;;;;;;;33.03;21.73;;;-3.40;81.00;;;-5.06;89.63;98039.19;4968047;28;20540;-67
2021/12/23 07:33:59;;;;;;;36.10;21.20;;;-3.30;81.90;;;-5.24;89.46;98042.22;4965063;28;20462;-71
2021/12/23 07:36:27;;;;;;;33.83;22.60;;;-3.30;80.60;;;-5.22;89.52;98031.59;4957589;28;20489;-69
2021/12/23 07:38:55;;;;;;;34.10;20.33;;;-3.30;80.80;;;-5.18;89.16;98023.34;4958462;28;20473;-73
2021/12/23 07:41:23;;;;;;;32.83;23.07;;;-3.30;81.10;;;-5.57;89.50;97980.59;4963568;28;20477;-71
2021/12/23 07:43:58;;;;;;;32.97;21.90;;;-3.40;80.60;;;-5.09;89.51;98026.22;4956995;28;20453;-69
2021/12/23 07:46:28;;;;;;;31.47;19.20;;;-3.30;81.20;;;-5.03;88.90;98020.50;4964553;28;21102;-75
2021/12/23 07:48:57;;;;;;;32.70;19.87;;;-3.20;80.70;;;-5.12;88.74;98001.78;4969458;28;20468;-72
2021/12/23 07:51:25;;;;;;;32.60;20.20;;;-3.20;80.10;;;-4.99;88.23;98011.41;4961686;28;20541;-69
2021/12/23 07:53:54;;;;;;;39.77;21.27;;;-3.10;79.60;;;-5.12;89.00;98012.31;4961971;28;20543;-71
2021/12/23 07:56:22;;;;;;;34.60;22.30;;;-3.20;80.10;;;-4.86;88.72;98004.22;4956356;28;20470;-70
2021/12/23 07:58:50;;;;;;;32.17;18.80;;;-3.10;80.80;;;-4.89;87.92;97991.28;4962891;28;20488;-69
2021/12/23 08:01:17;;;;;;;25.37;17.90;;;-3.00;79.30;;;-4.74;87.40;97993.72;4964391;28;20462;-71
2021/12/23 08:03:46;;;;;;;32.97;21.00;;;-2.90;78.20;;;-5.01;87.97;97992.22;4980160;28;21107;-70
2021/12/23 08:06:13;;;;;;;37.90;21.50;;;-3.00;78.30;;;-4.88;87.62;97987.69;4955745;28;20456;-70
2021/12/23 08:08:41;;;;;;;27.10;16.90;;;-3.00;78.30;;;-5.18;87.76;97960.09;4962995;28;20540;-74
2021/12/23 08:11:08;;;;;;;35.90;21.53;;;-3.00;78.60;;;-5.06;87.79;97968.88;4964117;28;20557;-71
2021/12/23 08:13:36;;;;;;;42.43;22.90;;;-3.00;78.40;;;-4.83;88.12;98003.16;4962159;28;21051;-68
2021/12/23 08:16:05;;;;;;;33.53;21.27;;;-3.00;78.90;;;-4.91;87.94;97995.84;4966865;28;20485;-68
2021/12/23 08:18:32;;;;;;;33.43;21.07;;;-3.00;78.30;;;-4.79;87.44;98011.66;4961996;28;21155;-66
2021/12/23 08:21:02;;;;;;;31.60;20.87;;;-3.00;78.20;;;-4.71;87.53;98001.38;4964881;28;20468;-81
2021/12/23 08:23:29;;;;;;;38.93;22.50;;;-2.90;78.20;;;-4.80;87.72;97988.91;4961307;28;20477;-71
2021/12/23 08:26:00;;;;;;;34.13;21.40;;;-2.90;78.30;;;-4.77;86.75;97962.31;4967164;28;20469;-67
2021/12/23 08:28:27;;;;;;;34.20;22.10;;;-2.90;77.70;;;-4.68;87.08;97974.75;4958915;28;20469;-72
2021/12/23 08:30:54;;;;;;;34.83;21.23;;;-2.90;77.80;;;-4.68;87.26;97961.56;4963839;28;20885;-72
2021/12/23 08:33:21;;;;;;;35.03;22.07;;;-2.80;78.10;;;-4.50;87.16;97961.94;4965898;28;20469;-67
2021/12/23 08:35:48;;;;;;;33.90;19.60;;;-2.80;78.40;;;-4.37;86.01;97945.16;4961680;28;20822;-69
2021/12/23 08:38:17;;;;;;;37.63;21.03;;;-2.60;76.90;;;-4.55;87.07;97951.75;4974505;28;20501;-71
2021/12/23 08:40:44;;;;;;;34.23;21.97;;;-2.70;77.80;;;-4.29;86.04;97950.63;4963233;28;20561;-71
2021/12/23 08:43:12;;;;;;;38.13;21.13;;;-2.60;77.10;;;-4.47;85.92;97945.03;4961875;28;20893;-69
2021/12/23 08:45:39;;;;;;;28.57;19.30;;;-2.60;76.30;;;-4.43;85.88;97949.94;4971859;28;20458;-70
2021/12/23 08:48:07;;;;;;;36.40;19.80;;;-2.50;76.50;;;-4.38;86.56;97946.09;4961983;28;20465;-78
2021/12/23 08:50:34;;;;;;;35.43;21.90;;;-2.60;77.40;;;-4.11;85.64;97943.03;4965726;28;20560;-72
2021/12/23 08:53:02;;;;;;;34.07;22.27;;;-2.40;76.80;;;-4.05;84.98;97947.81;4958778;28;21228;-67
2021/12/23 08:56:34;;;;;;;33.53;20.07;;;-2.30;75.60;;;-3.59;84.53;97942.34;5084483;27;20664;-71
2021/12/23 08:59:01;;;;;;;34.60;21.80;;;-2.00;76.10;;;-3.85;84.21;97955.94;5050786;28;20469;-72
2021/12/23 09:01:28;;;;;;;35.53;21.97;;;-2.00;74.60;;;-3.44;82.89;97959.56;5056828;28;20460;-67
2021/12/23 09:03:55;;;;;;;32.80;22.67;;;-1.80;75.00;;;-3.90;84.69;97966.84;5070202;28;20522;-73
2021/12/23 09:06:22;;;;;;;32.77;21.33;;;-2.00;74.90;;;-3.48;83.13;97966.09;5056835;28;20924;-67
2021/12/23 09:08:49;;;;;;;34.40;21.47;;;-1.80;74.80;;;-3.46;83.20;97968.63;5056587;28;20475;-69
2021/12/23 09:11:16;;;;;;;36.93;23.83;;;-1.80;74.50;;;-3.44;82.57;97958.75;5055838;28;20462;-67
2021/12/23 09:13:44;;;;;;;34.17;21.50;;;-1.60;73.70;;;-3.26;82.92;97956.38;5053071;28;21000;-68
2021/12/23 09:16:11;;;;;;;40.33;23.50;;;-1.60;74.30;;;-3.13;82.48;97961.47;5055055;28;20476;-68
2021/12/23 09:18:39;;;;;;;34.50;21.93;;;-1.50;73.80;;;-3.33;82.54;97957.84;5060011;28;20457;-68
2021/12/23 09:21:06;;;;;;;36.37;21.37;;;-1.50;73.50;;;-3.43;82.79;97953.31;5056952;28;20466;-70
2021/12/23 09:23:33;;;;;;;38.33;22.70;;;-1.60;73.50;;;-3.33;83.45;97952.56;5056429;28;20478;-69
2021/12/23 09:26:00;;;;;;;36.60;21.87;;;-1.60;74.40;;;-2.79;81.41;97948.00;5059603;28;20702;-67
2021/12/23 09:28:35;;;;;;;38.60;22.57;;;-1.30;74.10;;;-2.90;81.56;97948.06;5056061;28;20558;-66
2021/12/23 09:33:49;;;;;;;38.00;22.80;;;-1.10;72.10;;;-3.14;80.38;97877.84;5057934;28;20901;-69
2021/12/23 09:36:17;;;;;;;36.63;20.67;;;-1.00;72.40;;;-2.64;82.22;97948.50;5052809;28;20974;-68
2021/12/23 09:38:45;;;;;;;33.77;21.77;;;-1.00;73.90;;;-2.57;82.71;97949.63;5060527;28;20492;-66
2021/12/23 09:41:17;;;;;;;34.57;22.87;;;-1.00;74.10;;;-2.64;80.75;97942.34;5052544;28;20445;-70
2021/12/23 09:43:45;;;;;;;37.30;22.50;;;-0.90;72.70;;;-2.85;81.62;97936.13;5058555;28;20562;-70
2021/12/23 09:46:16;;;;;;;38.17;21.60;;;-1.00;72.70;;;-2.45;81.02;97931.00;5036837;28;21138;-66
2021/12/23 09:48:46;;;;;;;37.50;24.23;;;-0.90;73.10;;;-2.62;80.83;97935.13;5057742;28;20916;-68
2021/12/23 09:51:17;;;;;;;34.37;23.03;;;-0.90;72.50;;;-2.69;80.96;97926.88;5059372;28;20457;-66
2021/12/23 09:53:46;;;;;;;35.33;21.37;;;-0.90;72.40;;;-2.30;82.23;97924.34;5059181;28;20456;-66
2021/12/23 09:56:14;;;;;;;36.27;21.77;;;-0.80;74.60;;;-2.36;80.82;97918.78;5054839;28;20508;-82
2021/12/23 09:58:41;;;;;;;41.43;21.57;;;-0.70;72.60;;;-2.24;79.79;97906.25;5055782;28;20473;-75
2021/12/23 10:01:09;;;;;;;35.87;22.57;;;-0.60;72.40;;;-1.98;79.23;97911.84;5042167;28;20561;-76
2021/12/23 10:03:39;;;;;;;35.60;21.73;;;-0.40;71.90;;;-2.46;79.95;97897.56;5077071;28;20515;-78
2021/12/23 10:06:06;;;;;;;39.43;22.43;;;-0.60;71.00;;;-2.48;80.63;97875.72;5056455;28;20461;-76
2021/12/23 10:08:34;;;;;;;44.70;22.80;;;-0.60;72.00;;;-2.30;80.92;97895.25;5021752;28;20453;-76
2021/12/23 10:11:09;;;;;;;34.70;21.33;;;-0.70;72.60;;;-2.14;80.00;97896.53;5040679;28;20473;-76
2021/12/23 10:38:52;;;;;;;33.13;20.80;;;-0.10;71.10;;;-2.14;80.80;97809.97;5051974;28;20474;-77
2021/12/23 10:41:23;;;;;;;41.23;24.30;;;-0.20;71.80;;;-1.89;80.34;97846.66;5043148;28;20549;-74